This is the latest recevied weather packets stored in our database for station/object DH1NAI-6. If no packets are shown the sender has not sent any weather packets the latest 10 day(s).
| Time | Temp. | Humidity | Pressure | Rain* | Wind** | Luminosity | Snow |
|---|---|---|---|---|---|---|---|
| 1777654915 | 17.78° C | 43% | 1022.5 hPa | 0 mm | - | 10 W/m² | - |
| 1777654292 | 18.33° C | 43% | 1022.8 hPa | 0 mm | - | 13 W/m² | - |
| 1777653683 | 18.33° C | 43% | 1022.7 hPa | 0 mm | - | 46 W/m² | - |
| 1777653059 | 18.33° C | 43% | 1022.8 hPa | 0 mm | - | 55 W/m² | - |
| 1777652435 | 18.33° C | 43% | 1022.7 hPa | 0 mm | - | 63 W/m² | - |
| 1777651827 | 19.44° C | 43% | 1023.1 hPa | 0 mm | - | 67 W/m² | - |
| 1777651203 | 18.89° C | 42% | 1022.9 hPa | 0 mm | - | 76 W/m² | - |
| 1777650579 | 18.89° C | 43% | 1023 hPa | 0 mm | - | 87 W/m² | - |
| 1777649971 | 18.89° C | 43% | 1023.1 hPa | 0 mm | - | 94 W/m² | - |
| 1777649363 | 18.89° C | 45% | 1023.1 hPa | 0 mm | - | 98 W/m² | - |
| 1777648755 | 19.44° C | 40% | 1023.3 hPa | 0 mm | - | 104 W/m² | - |
| 1777648147 | 18.89° C | 43% | 1023.4 hPa | 0 mm | - | 112 W/m² | - |
| 1777647539 | 18.89° C | 43% | 1023.5 hPa | 0 mm | - | 119 W/m² | - |
| 1777646932 | 18.33° C | 43% | 1023.6 hPa | 0 mm | - | 127 W/m² | - |
| 1777646323 | 18.33° C | 42% | 1023.6 hPa | 0 mm | - | 135 W/m² | - |
| 1777645715 | 19.44° C | 41% | 1023.7 hPa | 0 mm | - | 140 W/m² | - |
| 1777645107 | 18.89° C | 42% | 1023.7 hPa | 0 mm | - | 143 W/m² | - |
| 1777644499 | 18.89° C | 41% | 1023.9 hPa | 0 mm | - | 146 W/m² | - |
| 1777643891 | 18.33° C | 42% | 1023.7 hPa | 0 mm | - | 148 W/m² | - |
| 1777643283 | 19.44° C | 41% | 1024.1 hPa | 0 mm | - | 151 W/m² | - |
| 1777642675 | 18.89° C | 39% | 1023.9 hPa | 0 mm | - | 165 W/m² | - |
| 1777642067 | 18.33° C | 42% | 1024.2 hPa | 0 mm | - | 168 W/m² | - |
| 1777641459 | 18.33° C | 42% | 1024 hPa | 0 mm | - | 171 W/m² | - |
| 1777640852 | 17.78° C | 43% | 1024.3 hPa | 0 mm | - | 173 W/m² | - |
| 1777640243 | 18.33° C | 44% | 1024.6 hPa | 0 mm | - | 176 W/m² | - |
* Rain latest hour (hover to see other rain measurements)
** Current wind speed in m/s (hover to see current wind gust speed)